createdAt,value
2018-04-19T04:00:52.355Z,20.90
2018-04-19T04:03:19.152Z,18.33
2018-04-19T04:05:45.923Z,28.17
2018-04-19T04:08:12.736Z,26.90
2018-04-19T04:10:39.484Z,20.03
2018-04-19T04:13:06.243Z,32.27
2018-04-19T04:15:33.053Z,21.20
2018-04-19T04:18:05.604Z,30.50
2018-04-19T04:20:38.324Z,36.97
2018-04-19T04:23:24.791Z,36.50
2018-04-19T04:25:51.601Z,30.30
2018-04-19T04:28:18.380Z,28.53
2018-04-19T04:30:45.160Z,26.13
2018-04-19T04:33:11.929Z,25.40
2018-04-19T04:35:38.691Z,22.03
2018-04-19T04:38:05.496Z,25.27
2018-04-19T04:40:32.251Z,24.80
2018-04-19T04:42:59.031Z,22.50
2018-04-19T04:45:25.770Z,28.20
2018-04-19T04:47:52.560Z,23.27
2018-04-19T04:50:19.344Z,30.93
2018-04-19T04:52:46.143Z,37.90
2018-04-19T04:55:13.100Z,25.63
2018-04-19T04:57:39.907Z,27.63
2018-04-19T05:00:07.607Z,39.43
2018-04-19T05:02:34.448Z,33.67
2018-04-19T05:05:01.201Z,32.90
2018-04-19T05:07:27.997Z,26.90
2018-04-19T05:09:54.742Z,19.90
2018-04-19T05:12:21.849Z,24.53
2018-04-19T05:14:48.664Z,21.87
2018-04-19T05:17:15.495Z,24.13
2018-04-19T05:19:42.750Z,22.13
2018-04-19T05:22:09.816Z,24.97
2018-04-19T05:24:36.577Z,30.73
2018-04-19T05:27:04.174Z,23.03
2018-04-19T05:29:30.917Z,24.37
2018-04-19T05:31:57.693Z,28.53
2018-04-19T05:34:24.480Z,22.13
2018-04-19T05:36:51.249Z,25.33
2018-04-19T05:39:18.056Z,27.70
2018-04-19T05:41:44.825Z,24.57
2018-04-19T05:44:11.608Z,25.33
2018-04-19T05:46:38.349Z,22.90
2018-04-19T05:49:06.000Z,24.33
2018-04-19T05:51:32.813Z,29.17
2018-04-19T05:53:59.784Z,25.17
2018-04-19T05:56:26.543Z,29.73
2018-04-19T05:58:53.338Z,24.50
2018-04-19T06:01:20.110Z,22.37
2018-04-19T06:03:46.944Z,23.13
2018-04-19T06:06:13.705Z,27.23
2018-04-19T06:08:40.468Z,20.20
2018-04-19T06:11:07.240Z,29.00
2018-04-19T06:13:33.992Z,23.63
2018-04-19T06:16:00.857Z,32.23
2018-04-19T06:18:27.634Z,27.83
2018-04-19T06:20:54.435Z,26.17
2018-04-19T06:23:21.197Z,25.63
2018-04-19T06:25:47.999Z,26.10
2018-04-19T06:28:14.810Z,22.30
2018-04-19T06:30:41.550Z,29.67
2018-04-19T06:33:08.345Z,22.83
2018-04-19T06:35:35.203Z,20.87
2018-04-19T06:38:01.973Z,26.50
2018-04-19T06:40:29.700Z,23.83
2018-04-19T06:42:56.478Z,24.97
2018-04-19T06:45:23.242Z,24.13
2018-04-19T06:47:50.041Z,33.13
2018-04-19T06:50:16.827Z,25.23
2018-04-19T06:52:43.621Z,21.93
2018-04-19T06:55:10.388Z,20.47
2018-04-19T06:57:37.289Z,20.70
2018-04-19T07:00:04.136Z,32.13
2018-04-19T07:02:31.060Z,26.93
2018-04-19T07:04:57.864Z,23.60
2018-04-19T07:07:24.629Z,27.20
2018-04-19T07:09:51.389Z,21.83
2018-04-19T07:12:18.159Z,21.43
2018-04-19T07:14:44.975Z,23.20
2018-04-19T07:17:11.758Z,21.67
2018-04-19T07:19:38.522Z,17.90
2018-04-19T07:22:05.270Z,24.97
2018-04-19T07:24:32.072Z,17.90
2018-04-19T07:26:58.849Z,20.50
2018-04-19T07:29:25.636Z,23.47
2018-04-19T07:31:52.385Z,19.10
2018-04-19T07:34:19.184Z,33.07
2018-04-19T07:36:45.961Z,18.50
2018-04-19T07:39:12.704Z,21.53
2018-04-19T07:41:39.499Z,13.10
2018-04-19T07:44:06.236Z,11.50
2018-04-19T07:46:32.981Z,14.10
2018-04-19T07:49:00.171Z,12.70
2018-04-19T07:51:26.998Z,13.87
2018-04-19T07:53:53.806Z,13.50
2018-04-19T07:56:20.576Z,14.33
2018-04-19T07:58:47.353Z,13.23
2018-04-19T08:01:14.095Z,11.87
2018-04-19T08:03:40.868Z,13.87
2018-04-19T08:06:07.681Z,14.13
2018-04-19T08:08:34.443Z,10.83
2018-04-19T08:11:01.181Z,10.13
2018-04-19T08:13:27.940Z,19.43
2018-04-19T08:15:54.757Z,14.07
2018-04-19T08:18:21.562Z,14.20
2018-04-19T08:20:48.332Z,14.50
2018-04-19T08:23:15.101Z,12.70
2018-04-19T08:25:41.894Z,10.70
2018-04-19T08:28:08.664Z,21.53
2018-04-19T08:30:35.433Z,9.50
2018-04-19T08:33:02.200Z,12.30
2018-04-19T08:35:29.028Z,6.97
2018-04-19T08:37:55.762Z,15.20
2018-04-19T08:40:22.519Z,12.50
2018-04-19T08:42:49.312Z,17.73
2018-04-19T08:45:16.104Z,8.40
2018-04-19T08:47:42.875Z,12.00
2018-04-19T08:50:09.681Z,9.90
2018-04-19T08:52:36.426Z,24.73
2018-04-19T08:55:03.233Z,13.17
2018-04-19T08:57:30.004Z,13.70
2018-04-19T08:59:56.797Z,13.60
2018-04-19T09:02:23.561Z,12.20
2018-04-19T09:04:50.313Z,15.70
2018-04-19T09:07:17.125Z,14.80
2018-04-19T09:09:43.901Z,15.10
2018-04-19T09:12:10.712Z,13.40
2018-04-19T09:14:37.466Z,14.30
2018-04-19T09:17:04.216Z,18.13
2018-04-19T09:19:31.073Z,15.00
2018-04-19T09:21:57.912Z,19.70
2018-04-19T09:24:24.735Z,10.93
2018-04-19T09:26:51.495Z,21.03
2018-04-19T09:29:18.283Z,16.80
2018-04-19T09:31:45.089Z,10.60
2018-04-19T09:34:12.312Z,16.03
2018-04-19T09:36:39.079Z,11.37
2018-04-19T09:39:05.917Z,15.47
2018-04-19T09:41:32.716Z,16.27
2018-04-19T09:43:59.589Z,13.53
2018-04-19T09:46:26.509Z,17.97
2018-04-19T09:48:53.451Z,16.20
2018-04-19T09:51:23.123Z,12.70
2018-04-19T09:53:50.038Z,15.43
2018-04-19T09:56:17.103Z,13.30
2018-04-19T09:58:43.995Z,15.23
2018-04-19T10:01:10.747Z,17.90
2018-04-19T10:03:43.200Z,15.47
2018-04-19T10:06:09.978Z,11.97
2018-04-19T10:08:36.830Z,12.50
2018-04-19T10:11:03.665Z,18.80
2018-04-19T10:13:30.436Z,15.77
2018-04-19T10:15:57.463Z,13.37
2018-04-19T10:18:24.264Z,15.90
2018-04-19T10:20:51.078Z,11.00
2018-04-19T10:23:17.854Z,18.37
2018-04-19T10:25:44.598Z,15.77
2018-04-19T10:28:11.448Z,9.60
2018-04-19T10:30:38.233Z,13.23
2018-04-19T10:33:05.029Z,16.23
2018-04-19T10:35:31.974Z,13.33
2018-04-19T10:37:58.832Z,16.90
2018-04-19T10:40:25.580Z,11.10
2018-04-19T10:42:52.392Z,12.90
2018-04-19T10:45:19.219Z,17.67
2018-04-19T10:47:46.059Z,17.33
2018-04-19T10:50:12.809Z,13.40
2018-04-19T10:52:39.582Z,18.03
2018-04-19T10:55:06.342Z,21.20
2018-04-19T10:57:33.129Z,17.50
2018-04-19T10:59:59.945Z,18.20
2018-04-19T11:02:26.728Z,16.57
2018-04-19T11:04:53.526Z,17.33
2018-04-19T11:07:20.363Z,15.43
2018-04-19T11:09:47.167Z,16.60
2018-04-19T11:12:13.981Z,17.37
2018-04-19T11:14:40.760Z,16.90
2018-04-19T11:17:07.520Z,19.77
2018-04-19T11:19:34.340Z,21.20
2018-04-19T11:22:01.173Z,22.10
2018-04-19T11:24:28.008Z,19.23
2018-04-19T11:26:54.777Z,20.13
2018-04-19T11:29:21.626Z,29.60
2018-04-19T11:31:48.416Z,20.10
2018-04-19T11:34:15.215Z,17.93
2018-04-19T11:36:42.088Z,21.77
2018-04-19T11:39:08.882Z,17.77
2018-04-19T11:41:35.701Z,15.80
2018-04-19T11:44:03.407Z,20.37
2018-04-19T11:46:30.252Z,20.13
2018-04-19T11:48:57.089Z,26.60
2018-04-19T11:51:23.859Z,25.27
2018-04-19T11:53:50.668Z,21.13
2018-04-19T11:56:17.470Z,20.43
2018-04-19T11:58:44.293Z,26.30
2018-04-19T12:01:11.052Z,24.73
2018-04-19T12:03:37.912Z,25.23
2018-04-19T12:06:04.682Z,19.97
2018-04-19T12:08:31.485Z,29.57
2018-04-19T12:10:58.332Z,18.07
2018-04-19T12:13:25.232Z,22.23
2018-04-19T12:15:52.016Z,21.40
2018-04-19T12:18:18.762Z,21.17
2018-04-19T12:20:45.536Z,20.07
2018-04-19T12:23:12.345Z,22.70
2018-04-19T12:25:39.154Z,24.20
2018-04-19T12:28:05.907Z,19.60
2018-04-19T12:30:32.661Z,25.90
2018-04-19T12:32:59.438Z,25.27
2018-04-19T12:35:26.265Z,24.00
2018-04-19T12:37:53.082Z,24.07
2018-04-19T12:40:19.901Z,19.20
2018-04-19T12:42:46.662Z,23.40
2018-04-19T12:45:13.419Z,15.97
2018-04-19T12:47:40.249Z,16.00
2018-04-19T12:50:07.280Z,26.30
2018-04-19T12:52:34.042Z,20.77
2018-04-19T12:55:00.798Z,23.93
2018-04-19T12:57:27.571Z,19.80
2018-04-19T12:59:54.365Z,23.73
2018-04-19T13:02:21.154Z,23.33
2018-04-19T13:04:47.951Z,20.53
2018-04-19T13:07:14.732Z,23.93
2018-04-19T13:09:41.559Z,21.13
2018-04-19T13:12:08.373Z,18.33
2018-04-19T13:14:35.149Z,21.97
2018-04-19T13:17:01.911Z,20.37
2018-04-19T13:19:28.735Z,19.37
2018-04-19T13:21:55.535Z,27.37
2018-04-19T13:24:22.341Z,19.50
2018-04-19T13:26:49.204Z,20.07
2018-04-19T13:29:16.017Z,19.93
2018-04-19T13:31:42.796Z,20.47
2018-04-19T13:34:09.601Z,18.50
2018-04-19T13:36:36.371Z,17.60
2018-04-19T13:39:03.169Z,18.53
2018-04-19T13:41:29.965Z,18.87
2018-04-19T13:43:56.764Z,18.70
2018-04-19T13:46:23.546Z,19.47
2018-04-19T13:48:50.345Z,24.60
2018-04-19T13:51:17.143Z,21.73
2018-04-19T13:53:43.965Z,18.20
2018-04-19T13:56:10.773Z,20.80
2018-04-19T13:58:37.527Z,21.73
2018-04-19T14:01:04.365Z,15.83
2018-04-19T14:03:31.144Z,21.40
2018-04-19T14:05:57.999Z,17.73
2018-04-19T14:08:24.773Z,22.67
2018-04-19T14:10:51.532Z,23.33
2018-04-19T14:13:18.344Z,28.00
2018-04-19T14:15:45.141Z,17.80
2018-04-19T14:18:11.909Z,24.33
2018-04-19T14:20:38.687Z,18.77
2018-04-19T14:23:05.453Z,15.80
2018-04-19T14:25:32.766Z,19.00
2018-04-19T14:27:59.589Z,21.90
2018-04-19T14:30:26.393Z,22.63
2018-04-19T14:32:53.200Z,16.70
2018-04-19T14:35:19.949Z,20.90
2018-04-19T14:37:46.710Z,17.50
2018-04-19T14:40:13.584Z,16.37
2018-04-19T14:42:40.389Z,17.63
2018-04-19T14:45:07.157Z,16.37
2018-04-19T14:47:33.934Z,19.80
2018-04-19T14:50:00.673Z,17.93
2018-04-19T14:52:27.500Z,20.67
2018-04-19T14:54:54.257Z,33.70
2018-04-19T14:57:21.037Z,22.80
2018-04-19T14:59:47.901Z,18.60
2018-04-19T15:02:14.714Z,20.87
2018-04-19T15:04:41.557Z,22.90
2018-04-19T15:07:08.397Z,16.43
2018-04-19T15:09:35.244Z,20.97
2018-04-19T15:12:02.029Z,16.93
2018-04-19T15:14:28.833Z,19.07
2018-04-19T15:16:55.626Z,17.53
2018-04-19T15:19:22.416Z,18.50
2018-04-19T15:21:49.184Z,15.00
2018-04-19T15:24:15.953Z,20.10
2018-04-19T15:26:42.714Z,22.20
2018-04-19T15:29:09.509Z,20.23
2018-04-19T15:31:36.283Z,17.40
2018-04-19T15:34:03.073Z,17.77
2018-04-19T15:36:29.965Z,18.87
2018-04-19T15:38:56.767Z,25.93
2018-04-19T15:41:23.565Z,21.20
2018-04-19T15:43:50.405Z,17.67
2018-04-19T15:46:17.158Z,19.70
2018-04-19T15:48:44.000Z,23.93
2018-04-19T15:51:10.783Z,29.83
2018-04-19T15:53:37.597Z,27.27
2018-04-19T15:56:04.451Z,22.60
2018-04-19T15:58:31.243Z,21.43
2018-04-19T16:00:58.040Z,18.80
2018-04-19T16:03:24.828Z,27.40
2018-04-19T16:05:51.646Z,22.90
2018-04-19T16:08:18.641Z,21.73
2018-04-19T16:10:45.401Z,17.03
2018-04-19T16:13:12.208Z,21.63
2018-04-19T16:15:38.980Z,20.33
2018-04-19T16:18:05.796Z,18.80
2018-04-19T16:20:33.317Z,21.57
2018-04-19T16:23:00.097Z,24.33
2018-04-19T16:25:26.873Z,21.07
2018-04-19T16:27:53.647Z,22.40
2018-04-19T16:30:20.486Z,17.27
2018-04-19T16:32:47.263Z,21.37
2018-04-19T16:35:14.034Z,17.93
2018-04-19T16:37:40.819Z,26.20
2018-04-19T16:40:07.674Z,24.20
2018-04-19T16:42:34.534Z,19.47
2018-04-19T16:45:01.298Z,22.57
2018-04-19T16:47:28.083Z,20.30
2018-04-19T16:49:55.162Z,21.70
2018-04-19T16:52:21.933Z,16.33
2018-04-19T16:54:48.768Z,22.33
2018-04-19T16:57:15.538Z,24.60
2018-04-19T16:59:42.297Z,20.83
2018-04-19T17:02:09.123Z,24.90
2018-04-19T17:04:35.940Z,19.77
2018-04-19T17:07:02.756Z,21.73
2018-04-19T17:09:30.056Z,20.17
2018-04-19T17:11:56.845Z,19.13
2018-04-19T17:14:23.651Z,19.67
2018-04-19T17:16:50.419Z,19.90
2018-04-19T17:19:17.227Z,18.73
2018-04-19T17:21:44.067Z,23.73
2018-04-19T17:24:10.894Z,22.03
2018-04-19T17:26:37.674Z,13.80
2018-04-19T17:29:04.453Z,20.43
2018-04-19T17:31:31.276Z,17.90
2018-04-19T17:33:58.080Z,19.53
2018-04-19T17:36:24.837Z,18.67
2018-04-19T17:38:51.614Z,17.23
2018-04-19T17:41:18.377Z,18.60
2018-04-19T17:43:45.193Z,15.83
2018-04-19T17:46:11.963Z,17.63
2018-04-19T17:48:38.725Z,15.43
2018-04-19T17:51:05.536Z,19.13
2018-04-19T17:53:32.291Z,22.53
2018-04-19T17:55:59.116Z,18.70
2018-04-19T17:58:25.899Z,17.60
2018-04-19T18:00:52.698Z,21.63
2018-04-19T18:03:19.475Z,17.30
2018-04-19T18:05:46.239Z,20.87
2018-04-19T18:08:13.076Z,20.43
2018-04-19T18:10:39.860Z,19.70
2018-04-19T18:13:06.684Z,19.50
2018-04-19T18:15:33.483Z,19.53
2018-04-19T18:18:00.316Z,20.93
2018-04-19T18:20:27.146Z,19.77
2018-04-19T18:22:53.976Z,22.77
2018-04-19T18:25:20.753Z,22.60
2018-04-19T18:27:47.542Z,18.10
2018-04-19T18:30:14.318Z,25.07
2018-04-19T18:32:41.148Z,19.63
2018-04-19T18:35:09.004Z,24.23
2018-04-19T18:37:35.856Z,20.70
2018-04-19T18:40:02.660Z,19.60
2018-04-19T18:42:29.469Z,19.60
2018-04-19T18:44:56.334Z,19.50
2018-04-19T18:47:23.121Z,21.80
2018-04-19T18:49:49.929Z,17.07
2018-04-19T18:52:16.704Z,17.33
2018-04-19T18:54:43.502Z,18.30
2018-04-19T18:57:10.317Z,16.27
2018-04-19T18:59:37.093Z,21.60
2018-04-19T19:02:03.898Z,18.07
2018-04-19T19:04:30.746Z,19.07
2018-04-19T19:06:57.590Z,22.17
2018-04-19T19:09:24.414Z,19.03
2018-04-19T19:11:51.188Z,21.53
2018-04-19T19:14:17.983Z,18.67
2018-04-19T19:16:44.813Z,18.43
2018-04-19T19:19:17.534Z,15.30
2018-04-19T19:21:44.371Z,18.40
2018-04-19T19:24:11.146Z,24.73
2018-04-19T19:26:37.959Z,17.60
2018-04-19T19:29:04.739Z,24.10
2018-04-19T19:31:31.523Z,20.80
2018-04-19T19:33:58.353Z,19.80
2018-04-19T19:36:25.134Z,23.03
2018-04-19T19:38:51.907Z,18.73
2018-04-19T19:41:18.715Z,19.40
2018-04-19T19:43:45.490Z,16.53
2018-04-19T19:46:12.331Z,15.80
2018-04-19T19:48:39.129Z,17.53
2018-04-19T19:51:05.906Z,14.70
2018-04-19T19:53:32.699Z,12.40
2018-04-19T19:55:59.546Z,20.00
2018-04-19T19:58:26.404Z,21.73
2018-04-19T20:00:53.205Z,16.23
2018-04-19T20:03:20.160Z,13.23
2018-04-19T20:05:47.094Z,21.17
2018-04-19T20:08:13.815Z,22.67
2018-04-19T20:10:40.635Z,14.03
2018-04-19T20:13:07.455Z,20.80
2018-04-19T20:15:34.266Z,15.93
2018-04-19T20:18:01.415Z,15.37
2018-04-19T20:20:28.184Z,23.03
2018-04-19T20:22:55.009Z,12.23
2018-04-19T20:25:21.794Z,11.87
2018-04-19T20:27:48.579Z,14.60
2018-04-19T20:30:15.361Z,17.40
2018-04-19T20:32:42.144Z,14.00
2018-04-19T20:35:09.020Z,13.60
2018-04-19T20:37:35.785Z,12.40
2018-04-19T20:40:02.565Z,14.20
2018-04-19T20:42:29.354Z,13.97
2018-04-19T20:44:56.151Z,15.77
2018-04-19T20:47:22.965Z,17.07
2018-04-19T20:49:49.713Z,16.33
2018-04-19T20:52:16.502Z,11.30
2018-04-19T20:54:43.246Z,17.53
2018-04-19T20:57:10.016Z,15.63
2018-04-19T20:59:36.902Z,13.40
2018-04-19T21:02:03.722Z,12.07
2018-04-19T21:04:30.507Z,11.10
2018-04-19T21:06:57.278Z,19.97
2018-04-19T21:09:24.060Z,15.37
2018-04-19T21:11:50.843Z,11.23
2018-04-19T21:14:17.627Z,17.23
2018-04-19T21:16:44.459Z,17.20
2018-04-19T21:19:11.228Z,14.27
2018-04-19T21:21:37.977Z,15.10
2018-04-19T21:24:04.768Z,12.83
2018-04-19T21:26:31.548Z,21.10
2018-04-19T21:28:58.302Z,16.77
2018-04-19T21:31:25.049Z,16.97
2018-04-19T21:33:51.869Z,15.93
2018-04-19T21:36:18.719Z,15.10
2018-04-19T21:38:45.449Z,17.37
2018-04-19T21:41:12.213Z,17.13
2018-04-19T21:43:39.012Z,12.13
2018-04-19T21:46:05.761Z,15.53
2018-04-19T21:48:32.994Z,11.60
2018-04-19T21:50:59.768Z,18.33
2018-04-19T21:53:26.594Z,22.10
2018-04-19T21:55:53.323Z,21.13
2018-04-19T21:58:20.091Z,14.10
2018-04-19T22:00:46.931Z,15.93
2018-04-19T22:03:13.774Z,16.13
2018-04-19T22:05:40.627Z,14.80
2018-04-19T22:08:07.378Z,14.60
2018-04-19T22:10:34.195Z,15.97
2018-04-19T22:13:01.000Z,16.67
2018-04-19T22:15:27.749Z,10.40
2018-04-19T22:17:54.528Z,13.83
2018-04-19T22:20:21.289Z,19.73
2018-04-19T22:22:48.067Z,15.50
2018-04-19T22:25:14.899Z,20.97
